createdAt,value
2018-07-10T00:01:45.206Z,65.90
2018-07-10T00:04:30.029Z,65.40
2018-07-10T00:08:11.379Z,66.30
2018-07-10T00:10:46.154Z,65.90
2018-07-10T00:13:14.083Z,65.80
2018-07-10T00:18:09.908Z,66.30
2018-07-10T00:20:38.048Z,65.80
2018-07-10T00:23:06.023Z,66.00
2018-07-10T00:28:01.879Z,66.60
2018-07-10T00:30:29.967Z,66.80
2018-07-10T00:32:57.975Z,66.60
2018-07-10T00:35:26.350Z,66.90
2018-07-10T00:38:05.577Z,66.60
2018-07-10T00:40:33.626Z,67.00
2018-07-10T00:43:02.384Z,67.20
2018-07-10T00:45:30.460Z,66.30
2018-07-10T00:50:26.339Z,65.90
2018-07-10T00:52:54.103Z,65.90
2018-07-10T00:55:21.983Z,65.90
2018-07-10T00:57:50.111Z,66.20
2018-07-10T01:00:32.406Z,65.80
2018-07-10T01:03:00.704Z,65.70
2018-07-10T01:05:28.799Z,66.60
2018-07-10T01:07:57.577Z,65.80
2018-07-10T01:10:25.712Z,65.70
2018-07-10T01:12:53.573Z,65.60
2018-07-10T01:15:23.277Z,65.50
2018-07-10T01:17:51.312Z,65.90
2018-07-10T01:20:20.338Z,66.00
2018-07-10T01:22:49.704Z,67.00
2018-07-10T01:25:17.712Z,66.70
2018-07-10T01:27:45.715Z,66.90
2018-07-10T01:32:43.365Z,67.00
2018-07-10T01:35:11.376Z,67.30
2018-07-10T01:37:39.305Z,68.10
2018-07-10T01:40:07.625Z,68.30
2018-07-10T01:42:35.906Z,70.00
2018-07-10T01:45:03.916Z,68.80
2018-07-10T01:47:31.888Z,68.80
2018-07-10T01:49:59.875Z,69.40
2018-07-10T01:52:28.279Z,69.90
2018-07-10T01:54:56.327Z,70.10
2018-07-10T01:57:25.263Z,70.50
2018-07-10T01:59:53.926Z,70.90
2018-07-10T02:02:23.108Z,71.40
2018-07-10T02:04:51.163Z,71.80
2018-07-10T02:07:19.159Z,71.60
2018-07-10T02:12:16.027Z,71.70
2018-07-10T02:14:44.047Z,71.70
2018-07-10T02:17:12.080Z,71.70
2018-07-10T02:19:40.011Z,71.50
2018-07-10T02:22:08.300Z,72.70
2018-07-10T02:24:36.411Z,71.40
2018-07-10T02:27:04.387Z,70.90
2018-07-10T02:29:32.533Z,70.80
2018-07-10T02:32:00.739Z,71.00
2018-07-10T02:34:28.775Z,70.40
2018-07-10T02:36:56.772Z,70.40
2018-07-10T02:39:24.917Z,70.80
2018-07-10T02:41:53.475Z,71.10
2018-07-10T02:44:21.504Z,72.20
2018-07-10T02:46:49.477Z,71.60
2018-07-10T02:49:19.176Z,72.00
2018-07-10T02:51:52.971Z,71.40
2018-07-10T02:54:23.156Z,72.00
2018-07-10T02:56:52.746Z,71.60
2018-07-10T02:59:20.672Z,71.50
2018-07-10T03:01:48.740Z,71.50
2018-07-10T03:04:16.891Z,71.70
2018-07-10T03:06:45.399Z,71.90
2018-07-10T03:09:13.865Z,71.70
2018-07-10T03:11:41.885Z,71.70
2018-07-10T03:14:10.183Z,71.50
2018-07-10T03:16:38.887Z,71.90
2018-07-10T03:19:08.220Z,71.70
2018-07-10T03:21:36.760Z,71.80
2018-07-10T03:24:04.837Z,71.90
2018-07-10T03:26:32.914Z,72.20
2018-07-10T03:29:01.229Z,72.40
2018-07-10T03:31:29.387Z,72.70
2018-07-10T03:33:57.431Z,72.30
2018-07-10T03:36:25.530Z,72.60
2018-07-10T03:38:53.743Z,72.60
2018-07-10T03:41:21.780Z,72.70
2018-07-10T03:43:49.829Z,72.90
2018-07-10T03:46:18.028Z,73.40
2018-07-10T03:48:46.080Z,74.00
2018-07-10T03:51:14.106Z,74.30
2018-07-10T03:53:42.157Z,74.90
2018-07-10T03:56:10.933Z,76.50
2018-07-10T03:58:38.889Z,76.70
2018-07-10T04:01:10.918Z,77.90
2018-07-10T04:03:38.899Z,79.80
2018-07-10T04:06:07.336Z,79.30
2018-07-10T04:08:36.978Z,80.90
2018-07-10T04:11:05.034Z,82.50
2018-07-10T04:13:33.711Z,83.70
2018-07-10T04:16:02.442Z,81.30
2018-07-10T04:18:31.784Z,84.00
2018-07-10T04:21:18.285Z,84.00
2018-07-10T04:23:48.230Z,84.40
2018-07-10T04:26:20.026Z,82.70
2018-07-10T04:28:51.837Z,83.30
2018-07-10T04:31:26.771Z,85.00
2018-07-10T04:33:54.750Z,85.80
2018-07-10T04:36:22.632Z,84.90
2018-07-10T04:38:56.427Z,83.20
2018-07-10T04:41:26.811Z,83.90
2018-07-10T04:44:05.193Z,84.00
2018-07-10T04:46:36.279Z,84.60
2018-07-10T04:49:21.332Z,84.80
2018-07-10T04:51:54.506Z,84.90
2018-07-10T04:54:28.326Z,83.40
2018-07-10T04:57:15.549Z,83.30
2018-07-10T04:59:43.685Z,84.60
2018-07-10T05:02:11.592Z,83.40
2018-07-10T05:04:39.539Z,82.70
2018-07-10T05:07:08.566Z,84.30
2018-07-10T05:09:37.863Z,81.30
2018-07-10T05:12:06.930Z,81.30
2018-07-10T05:14:35.302Z,82.20
2018-07-10T05:17:03.519Z,84.70
2018-07-10T05:19:31.854Z,85.30
2018-07-10T05:21:59.914Z,85.50
2018-07-10T05:24:28.142Z,84.70
2018-07-10T05:26:56.909Z,85.60
2018-07-10T05:29:24.944Z,84.90
2018-07-10T05:31:53.129Z,85.40
2018-07-10T05:34:21.211Z,85.10
2018-07-10T05:36:49.590Z,85.40
2018-07-10T05:39:17.596Z,84.30
2018-07-10T05:41:47.061Z,83.00
2018-07-10T05:44:18.477Z,82.60
2018-07-10T05:46:46.814Z,84.30
2018-07-10T05:49:14.855Z,83.90
2018-07-10T05:51:44.089Z,83.50
2018-07-10T05:54:12.647Z,83.40
2018-07-10T05:56:40.800Z,85.70
2018-07-10T05:59:08.954Z,86.40
2018-07-10T06:01:38.205Z,84.60
2018-07-10T06:04:07.484Z,84.40
2018-07-10T06:06:35.527Z,82.60
2018-07-10T06:09:05.467Z,84.90
2018-07-10T06:11:34.831Z,85.30
2018-07-10T06:14:02.902Z,86.30
2018-07-10T06:16:31.224Z,83.80
2018-07-10T06:18:59.312Z,84.50
2018-07-10T06:21:34.682Z,85.20
2018-07-10T06:24:05.541Z,84.70
2018-07-10T06:26:34.412Z,84.70
2018-07-10T06:29:05.199Z,85.70
2018-07-10T06:31:38.857Z,84.60
2018-07-10T06:34:07.018Z,82.60
2018-07-10T06:37:10.768Z,83.00
2018-07-10T06:39:39.143Z,83.30
2018-07-10T06:42:09.231Z,84.60
2018-07-10T06:44:37.959Z,83.90
2018-07-10T06:47:26.225Z,82.50
2018-07-10T06:49:54.132Z,82.40
2018-07-10T06:52:22.768Z,82.80
2018-07-10T06:54:57.644Z,83.80
2018-07-10T06:57:30.370Z,84.50
2018-07-10T07:00:02.175Z,85.60
2018-07-10T07:02:31.623Z,86.20
2018-07-10T07:05:00.176Z,86.20
2018-07-10T07:07:28.721Z,85.90
2018-07-10T07:09:57.445Z,83.00
2018-07-10T07:12:25.507Z,82.50
2018-07-10T07:14:53.410Z,83.80
2018-07-10T07:17:21.692Z,85.40
2018-07-10T07:19:49.728Z,84.30
2018-07-10T07:22:17.764Z,86.60
2018-07-10T07:24:45.795Z,86.10
2018-07-10T07:27:13.830Z,84.40
2018-07-10T07:29:41.881Z,84.60
2018-07-10T07:32:09.924Z,83.00
2018-07-10T07:34:38.275Z,84.30
2018-07-10T07:37:08.334Z,83.40
2018-07-10T07:39:42.114Z,83.20
2018-07-10T07:42:10.023Z,82.80
2018-07-10T07:44:38.024Z,84.60
2018-07-10T07:47:05.972Z,83.50
2018-07-10T07:49:34.125Z,84.70
2018-07-10T07:52:02.299Z,82.50
2018-07-10T07:54:30.355Z,81.90
2018-07-10T07:56:58.506Z,81.60
2018-07-10T07:59:26.568Z,81.50
2018-07-10T08:01:54.430Z,82.90
2018-07-10T08:04:22.416Z,82.10
2018-07-10T08:06:50.445Z,81.10
2018-07-10T08:09:18.550Z,80.90
2018-07-10T08:11:46.744Z,79.80
2018-07-10T08:14:16.918Z,81.10
2018-07-10T08:16:45.267Z,81.90
2018-07-10T08:19:14.812Z,81.80
2018-07-10T08:21:45.578Z,82.00
2018-07-10T08:24:13.652Z,82.60
2018-07-10T08:26:41.642Z,82.50
2018-07-10T08:29:11.562Z,83.30
2018-07-10T08:31:40.216Z,81.80
2018-07-10T08:34:08.633Z,81.70
2018-07-10T08:36:36.564Z,81.70
2018-07-10T08:39:04.779Z,82.20
2018-07-10T08:41:42.806Z,83.60
2018-07-10T08:44:11.018Z,83.20
2018-07-10T08:46:39.322Z,84.90
2018-07-10T08:49:07.724Z,82.30
2018-07-10T08:51:35.784Z,83.80
2018-07-10T08:54:05.323Z,83.60
2018-07-10T08:56:33.782Z,83.30
2018-07-10T08:59:02.100Z,81.90
2018-07-10T09:01:31.062Z,82.10
2018-07-10T09:03:59.107Z,82.90
2018-07-10T09:08:54.892Z,83.40
2018-07-10T09:13:50.938Z,83.70
2018-07-10T09:16:19.047Z,82.80
2018-07-10T09:18:47.214Z,82.30
2018-07-10T09:21:16.174Z,82.90
2018-07-10T09:23:44.602Z,82.20
2018-07-10T09:26:12.801Z,80.80
2018-07-10T09:28:40.864Z,83.10
2018-07-10T09:31:10.077Z,81.50
2018-07-10T09:33:38.587Z,79.70
2018-07-10T09:36:09.621Z,79.80
2018-07-10T09:38:37.818Z,78.50
2018-07-10T09:41:08.056Z,78.00
2018-07-10T09:43:37.923Z,77.80
2018-07-10T09:46:06.159Z,78.10
2018-07-10T09:48:34.258Z,76.40
2018-07-10T09:51:02.787Z,75.20
2018-07-10T09:53:31.641Z,73.00
2018-07-10T09:56:00.024Z,72.60
2018-07-10T09:58:28.740Z,75.90
2018-07-10T10:01:04.365Z,73.40
2018-07-10T10:03:32.654Z,73.70
2018-07-10T10:06:01.106Z,72.70
2018-07-10T10:08:30.434Z,75.80
2018-07-10T10:10:58.927Z,74.20
2018-07-10T10:13:27.656Z,75.00
2018-07-10T10:15:55.849Z,71.90
2018-07-10T10:18:23.984Z,70.30
2018-07-10T10:20:58.742Z,70.10
2018-07-10T10:23:27.363Z,72.10
2018-07-10T10:25:55.772Z,69.90
2018-07-10T10:28:24.687Z,68.20
2018-07-10T10:30:52.965Z,67.90
2018-07-10T10:33:21.022Z,69.00
2018-07-10T10:35:48.951Z,69.90
2018-07-10T10:38:17.558Z,70.20
2018-07-10T10:40:46.951Z,68.30
2018-07-10T10:43:16.387Z,67.60
2018-07-10T10:45:59.872Z,67.10
2018-07-10T10:48:28.928Z,65.40
2018-07-10T10:51:03.503Z,66.30
2018-07-10T10:53:33.134Z,68.30
2018-07-10T10:56:02.229Z,66.10
2018-07-10T10:58:31.324Z,69.40
2018-07-10T11:01:00.834Z,66.80
2018-07-10T11:03:30.791Z,64.40
2018-07-10T11:06:01.175Z,62.50
2018-07-10T11:08:30.995Z,58.40
2018-07-10T11:11:01.066Z,57.30
2018-07-10T11:13:30.471Z,61.00
2018-07-10T11:16:05.337Z,61.60
2018-07-10T11:19:01.261Z,58.40
2018-07-10T11:21:38.212Z,59.80
2018-07-10T11:24:07.066Z,63.20
2018-07-10T11:26:37.707Z,65.10
2018-07-10T11:29:06.972Z,67.80
2018-07-10T11:31:36.395Z,66.20
2018-07-10T11:34:05.711Z,62.90
2018-07-10T11:36:34.230Z,60.70
2018-07-10T11:39:07.007Z,59.40
2018-07-10T11:41:49.009Z,58.30
2018-07-10T11:44:18.017Z,58.40
2018-07-10T11:46:47.165Z,59.70
2018-07-10T11:49:15.664Z,61.30
2018-07-10T11:51:44.153Z,62.60
2018-07-10T11:54:15.571Z,65.30
2018-07-10T11:56:47.389Z,66.10
2018-07-10T11:59:19.576Z,66.20
2018-07-10T12:01:47.997Z,68.30
2018-07-10T12:04:16.189Z,70.20
2018-07-10T12:06:49.634Z,68.30
2018-07-10T12:09:18.268Z,66.00
2018-07-10T12:11:49.230Z,65.50
2018-07-10T12:14:17.710Z,63.20
2018-07-10T12:16:48.531Z,64.70
2018-07-10T12:19:17.965Z,65.00
2018-07-10T12:21:46.573Z,64.10
2018-07-10T12:24:16.902Z,63.70
2018-07-10T12:26:45.853Z,64.60
2018-07-10T12:29:15.304Z,64.10
2018-07-10T12:31:44.434Z,63.00
2018-07-10T12:34:13.241Z,63.10
2018-07-10T12:36:41.889Z,63.10
2018-07-10T12:39:10.430Z,63.20
2018-07-10T12:41:39.941Z,63.50
2018-07-10T12:44:09.636Z,60.30
2018-07-10T12:46:38.982Z,60.90
2018-07-10T12:49:07.326Z,60.60
2018-07-10T12:51:35.791Z,61.60
2018-07-10T12:54:04.423Z,60.60
2018-07-10T12:56:32.863Z,58.40
2018-07-10T12:59:01.208Z,58.40
2018-07-10T13:01:31.015Z,57.30
2018-07-10T13:04:00.001Z,57.20
2018-07-10T13:06:29.009Z,58.00
2018-07-10T13:08:57.701Z,56.90
2018-07-10T13:11:28.688Z,57.40
2018-07-10T13:14:00.334Z,58.00
2018-07-10T13:16:31.615Z,59.80
2018-07-10T13:21:31.801Z,57.60
2018-07-10T13:24:00.811Z,57.80
2018-07-10T13:26:31.344Z,57.00
2018-07-10T13:29:00.159Z,57.60
2018-07-10T13:31:30.147Z,58.90
2018-07-10T13:36:27.410Z,56.70
2018-07-10T13:38:56.518Z,55.80
2018-07-10T13:41:24.796Z,55.30
2018-07-10T13:43:52.983Z,55.70
2018-07-10T13:46:21.672Z,57.00
2018-07-10T13:48:50.935Z,56.90
2018-07-10T13:51:19.303Z,55.70
2018-07-10T13:53:47.734Z,57.10
2018-07-10T13:56:16.146Z,55.80
2018-07-10T13:58:44.525Z,54.80
2018-07-10T14:01:12.825Z,55.80
2018-07-10T14:03:42.081Z,54.50
2018-07-10T14:08:41.642Z,57.20
2018-07-10T14:11:12.077Z,55.80
2018-07-10T14:13:41.487Z,56.90
2018-07-10T14:16:10.578Z,56.80
2018-07-10T14:18:39.074Z,55.70
2018-07-10T14:21:08.621Z,57.10
2018-07-10T14:23:37.100Z,56.10
2018-07-10T14:26:05.618Z,56.00
2018-07-10T14:28:34.757Z,57.40
2018-07-10T14:31:03.473Z,57.60
2018-07-10T14:33:31.691Z,57.10
2018-07-10T14:36:00.451Z,55.90
2018-07-10T14:38:30.398Z,55.60
2018-07-10T14:41:01.929Z,54.10
2018-07-10T14:43:34.383Z,55.10
2018-07-10T14:46:07.448Z,55.70
2018-07-10T14:48:44.029Z,55.50
2018-07-10T14:51:13.579Z,55.50
2018-07-10T14:53:42.070Z,55.80
2018-07-10T14:56:10.869Z,55.70
2018-07-10T14:58:39.328Z,57.20
2018-07-10T15:01:08.140Z,56.40
2018-07-10T15:03:40.357Z,55.50
2018-07-10T15:06:09.219Z,56.40
2018-07-10T15:08:37.461Z,56.10
2018-07-10T15:11:06.719Z,54.60
2018-07-10T15:13:46.865Z,55.30
2018-07-10T15:16:15.822Z,55.60
2018-07-10T15:18:46.313Z,57.00
2018-07-10T15:21:14.275Z,57.90
2018-07-10T15:23:43.558Z,57.50
2018-07-10T15:26:13.009Z,56.80
2018-07-10T15:28:41.471Z,55.80
2018-07-10T15:31:10.037Z,56.00
2018-07-10T15:33:38.348Z,55.30
2018-07-10T15:36:06.856Z,53.60
2018-07-10T15:38:38.972Z,55.50
2018-07-10T15:41:07.297Z,55.30
2018-07-10T15:43:39.829Z,54.90
2018-07-10T15:46:08.760Z,55.60
2018-07-10T15:48:36.980Z,56.40
2018-07-10T15:51:07.297Z,56.20
2018-07-10T15:53:35.800Z,55.20
2018-07-10T15:56:04.400Z,55.00
2018-07-10T15:58:33.592Z,55.90
2018-07-10T16:01:04.783Z,56.00
2018-07-10T16:03:33.762Z,55.70
2018-07-10T16:06:03.755Z,56.20
2018-07-10T16:08:33.981Z,55.10
2018-07-10T16:11:04.686Z,54.70
2018-07-10T16:13:37.412Z,54.80
2018-07-10T16:16:06.832Z,54.00
2018-07-10T16:18:35.196Z,53.30
2018-07-10T16:21:04.199Z,55.50
2018-07-10T16:23:54.701Z,53.70
2018-07-10T16:26:23.578Z,52.10
2018-07-10T16:28:52.025Z,53.40
2018-07-10T16:31:20.929Z,54.40
2018-07-10T16:33:51.297Z,55.60
2018-07-10T16:36:19.597Z,55.30
2018-07-10T16:38:48.271Z,56.50
2018-07-10T16:41:30.255Z,55.00
2018-07-10T16:46:30.344Z,55.50
2018-07-10T16:49:16.479Z,54.90
2018-07-10T16:51:59.045Z,54.90
2018-07-10T16:54:27.961Z,55.60
2018-07-10T16:56:56.287Z,54.80
2018-07-10T16:59:24.742Z,56.00
2018-07-10T17:01:52.720Z,56.00
2018-07-10T17:04:22.318Z,57.40
2018-07-10T17:06:50.496Z,57.90
2018-07-10T17:09:19.064Z,57.90
2018-07-10T17:11:47.184Z,56.80
2018-07-10T17:14:15.660Z,55.40
2018-07-10T17:16:43.969Z,56.20
2018-07-10T17:19:12.507Z,56.70
2018-07-10T17:21:41.447Z,56.80
2018-07-10T17:24:10.952Z,57.10
2018-07-10T17:26:40.616Z,57.20
2018-07-10T17:29:11.051Z,57.60
2018-07-10T17:31:39.456Z,57.10
2018-07-10T17:34:07.811Z,58.50
2018-07-10T17:36:36.959Z,58.20
2018-07-10T17:39:05.894Z,58.40
2018-07-10T17:41:35.879Z,58.40
2018-07-10T17:44:06.680Z,57.60
2018-07-10T17:46:35.101Z,59.20
2018-07-10T17:49:04.082Z,57.50
2018-07-10T17:51:33.063Z,59.30
2018-07-10T17:54:03.905Z,58.40
2018-07-10T17:56:33.774Z,58.40
2018-07-10T17:59:04.855Z,58.50
2018-07-10T18:01:33.685Z,59.00
2018-07-10T18:04:03.123Z,58.60
2018-07-10T18:06:31.689Z,59.10
2018-07-10T18:09:00.159Z,59.20
2018-07-10T18:11:28.803Z,58.20
2018-07-10T18:13:57.256Z,58.50
2018-07-10T18:16:30.323Z,59.70
2018-07-10T18:19:00.147Z,58.90
2018-07-10T18:21:28.893Z,59.60
2018-07-10T18:23:57.946Z,59.80
2018-07-10T18:26:27.186Z,60.30
2018-07-10T18:29:00.805Z,59.00
2018-07-10T18:31:30.340Z,60.30
2018-07-10T18:33:59.218Z,59.70
2018-07-10T18:36:27.747Z,60.70
2018-07-10T18:38:55.936Z,61.10
2018-07-10T18:41:24.398Z,59.50
2018-07-10T18:43:53.067Z,61.70
2018-07-10T18:46:21.566Z,59.70
2018-07-10T18:48:49.720Z,61.90
2018-07-10T18:51:18.385Z,62.40
2018-07-10T18:53:46.669Z,60.70
2018-07-10T18:56:14.679Z,61.90
2018-07-10T18:58:52.871Z,61.60
2018-07-10T19:03:59.468Z,60.40
2018-07-10T19:06:28.608Z,60.60
2018-07-10T19:08:57.304Z,62.10
2018-07-10T19:11:28.232Z,61.30
2018-07-10T19:14:04.008Z,61.20
2018-07-10T19:16:33.389Z,61.10
2018-07-10T19:19:04.440Z,61.10
2018-07-10T19:21:37.953Z,61.50
2018-07-10T19:24:13.057Z,61.90
2018-07-10T19:26:41.637Z,62.90
2018-07-10T19:29:15.973Z,63.00
2018-07-10T19:31:44.068Z,63.60
2018-07-10T19:34:12.747Z,64.20
2018-07-10T19:36:41.443Z,65.20
2018-07-10T19:39:10.712Z,65.50
2018-07-10T19:41:38.876Z,65.70
2018-07-10T19:44:07.242Z,65.80
2018-07-10T19:46:36.418Z,65.70
2018-07-10T19:49:06.867Z,65.60
2018-07-10T19:51:35.189Z,66.20
2018-07-10T19:54:13.428Z,66.50
2018-07-10T19:56:41.634Z,67.80
2018-07-10T19:59:11.904Z,67.60
2018-07-10T20:01:51.197Z,67.60
2018-07-10T20:05:00.347Z,67.20
2018-07-10T20:07:37.928Z,67.30
2018-07-10T20:10:40.268Z,67.30
2018-07-10T20:13:13.215Z,67.50
2018-07-10T20:15:51.670Z,67.70
2018-07-10T20:18:34.242Z,68.10
2018-07-10T20:21:10.761Z,69.10
2018-07-10T20:23:53.694Z,69.00
2018-07-10T20:26:33.161Z,69.40
2018-07-10T20:29:09.153Z,70.10
2018-07-10T20:31:47.172Z,70.40
2018-07-10T20:34:24.054Z,70.90
2018-07-10T20:36:54.049Z,71.30
2018-07-10T20:39:31.752Z,71.30
2018-07-10T20:42:00.905Z,71.50
2018-07-10T20:44:29.679Z,71.30
2018-07-10T20:47:03.873Z,71.30
2018-07-10T20:49:46.738Z,71.60
2018-07-10T20:52:22.488Z,70.20
2018-07-10T20:54:59.351Z,70.20
2018-07-10T20:57:33.860Z,70.90
2018-07-10T21:00:10.969Z,71.30
2018-07-10T21:02:47.785Z,72.10
2018-07-10T21:05:19.796Z,72.60
2018-07-10T21:07:55.898Z,73.30
2018-07-10T21:10:36.432Z,73.20
2018-07-10T21:13:19.192Z,72.80
2018-07-10T21:15:56.273Z,73.20
2018-07-10T21:18:33.452Z,73.50
2018-07-10T21:21:15.320Z,73.80
2018-07-10T21:23:53.617Z,74.00
2018-07-10T21:26:44.564Z,74.90
2018-07-10T21:29:21.001Z,75.30
2018-07-10T21:31:56.010Z,75.30
2018-07-10T21:34:28.671Z,75.50
2018-07-10T21:37:07.322Z,75.70
2018-07-10T21:39:48.754Z,76.00
2018-07-10T21:42:27.820Z,75.90
2018-07-10T21:45:06.823Z,75.50
2018-07-10T21:47:46.560Z,74.60
2018-07-10T21:50:19.985Z,74.30
2018-07-10T21:52:48.169Z,74.30
2018-07-10T21:55:16.395Z,74.70
2018-07-10T21:57:44.398Z,74.90
2018-07-10T22:00:12.435Z,75.10
2018-07-10T22:02:40.768Z,75.20
2018-07-10T22:05:09.180Z,75.50
2018-07-10T22:07:37.615Z,75.70
2018-07-10T22:10:06.863Z,76.10
2018-07-10T22:12:39.205Z,76.70
2018-07-10T22:15:07.214Z,76.70
2018-07-10T22:17:37.567Z,77.00
2018-07-10T22:20:06.352Z,77.90
2018-07-10T22:22:34.428Z,78.10
2018-07-10T22:25:03.241Z,78.40
2018-07-10T22:27:31.346Z,78.70
2018-07-10T22:30:05.532Z,79.20
2018-07-10T22:32:40.420Z,79.30
2018-07-10T22:35:08.862Z,79.50
2018-07-10T22:37:37.029Z,79.60
2018-07-10T22:40:05.900Z,79.60
2018-07-10T22:42:34.163Z,80.10
2018-07-10T22:45:02.374Z,80.20
2018-07-10T22:47:40.022Z,80.20
2018-07-10T22:50:13.500Z,80.50
2018-07-10T22:52:45.538Z,80.40
2018-07-10T22:55:16.478Z,80.30
2018-07-10T22:57:44.895Z,80.10
2018-07-10T23:00:19.193Z,80.30
2018-07-10T23:02:47.390Z,79.70
2018-07-10T23:05:16.396Z,78.20
2018-07-10T23:07:44.652Z,77.70
2018-07-10T23:10:12.734Z,77.50
2018-07-10T23:12:41.183Z,78.00
2018-07-10T23:15:09.346Z,78.80
2018-07-10T23:17:37.543Z,78.80
2018-07-10T23:20:05.678Z,79.80
2018-07-10T23:22:45.174Z,79.40
2018-07-10T23:25:13.370Z,79.60
2018-07-10T23:27:41.585Z,79.90
2018-07-10T23:30:09.777Z,80.00
2018-07-10T23:32:37.702Z,79.80
2018-07-10T23:35:05.673Z,80.30
2018-07-10T23:37:35.244Z,80.30
2018-07-10T23:40:05.480Z,80.20
2018-07-10T23:42:34.986Z,79.80
2018-07-10T23:45:13.055Z,79.80
2018-07-10T23:47:41.360Z,80.30
2018-07-10T23:50:17.105Z,80.00
2018-07-10T23:53:52.291Z,80.20
2018-07-10T23:56:31.233Z,80.50
2018-07-10T23:59:01.330Z,81.20
